Time;durP1;ratioP1;P1;durP2;ratioP2;P2;SDS_P1;SDS_P2;PMS_P1;PMS_P2;Temp;Humidity;BMP_temperature;BMP_pressure;BME280_temperature;BME280_humidity;BME280_pressure;Samples;Min_cycle;Max_cycle;Signal;HPM_P1;HPM_P2
2021/04/20 00:02:00;;;;;;;15.33;9.77;;;8.10;99.90;;;;;;4230699;27;20047;-63
2021/04/20 00:04:03;;;;;;;16.17;9.80;;;8.10;99.90;;;;;;4222395;28;20039;-63
2021/04/20 00:06:06;;;;;;;14.43;9.10;;;8.00;99.90;;;;;;4222591;28;20089;-63
2021/04/20 00:08:07;;;;;;;17.07;10.07;;;8.00;99.90;;;;;;4222765;28;20039;-63
2021/04/20 00:10:14;;;;;;;15.43;9.73;;;8.00;99.90;;;;;;4223767;28;20035;-62
2021/04/20 00:12:15;;;;;;;12.73;8.47;;;8.00;99.90;;;;;;4222948;28;21029;-62
2021/04/20 00:14:17;;;;;;;13.37;8.50;;;8.00;99.90;;;;;;4224225;28;20035;-62
2021/04/20 00:16:18;;;;;;;13.57;8.47;;;8.00;99.90;;;;;;4222739;28;20028;-63
2021/04/20 00:18:19;;;;;;;9.83;7.37;;;8.00;99.90;;;;;;4222320;28;20036;-63
2021/04/20 00:20:21;;;;;;;13.23;8.23;;;8.00;99.90;;;;;;4222663;28;20031;-63
2021/04/20 00:22:22;;;;;;;13.60;8.07;;;8.00;99.90;;;;;;4223286;28;20027;-64
2021/04/20 00:24:23;;;;;;;12.30;8.57;;;8.00;99.90;;;;;;4237948;28;20478;-62
2021/04/20 00:26:24;;;;;;;11.30;8.17;;;8.00;99.90;;;;;;4240072;28;20091;-62
2021/04/20 00:28:27;;;;;;;13.73;9.43;;;8.00;99.90;;;;;;4239027;28;20019;-63
2021/04/20 00:30:28;;;;;;;16.77;9.50;;;8.00;99.90;;;;;;4224203;28;20023;-62
2021/04/20 00:32:30;;;;;;;16.37;9.37;;;7.90;99.90;;;;;;4223315;28;20156;-62
2021/04/20 00:34:31;;;;;;;15.77;9.70;;;8.00;99.90;;;;;;4222532;28;20376;-63
2021/04/20 00:36:32;;;;;;;17.10;10.27;;;8.00;99.90;;;;;;4223574;28;20043;-63
2021/04/20 00:38:33;;;;;;;19.20;11.20;;;7.90;99.90;;;;;;4227973;28;20042;-62
2021/04/20 00:40:34;;;;;;;13.90;9.13;;;7.90;99.90;;;;;;4240105;28;20031;-63
2021/04/20 00:42:51;;;;;;;12.07;8.87;;;7.90;99.90;;;;;;4239710;28;20038;-64
2021/04/20 00:44:52;;;;;;;11.73;8.10;;;8.00;99.90;;;;;;4240956;27;20043;-63
2021/04/20 00:46:54;;;;;;;11.33;7.90;;;7.90;99.90;;;;;;4238828;27;20068;-63
2021/04/20 00:48:55;;;;;;;13.20;8.60;;;8.00;99.90;;;;;;4243639;27;20027;-62
2021/04/20 00:50:56;;;;;;;11.13;8.67;;;7.90;99.90;;;;;;4242486;27;20035;-63
2021/04/20 00:52:57;;;;;;;13.00;8.70;;;8.00;99.90;;;;;;4243804;27;20112;-63
2021/04/20 00:54:59;;;;;;;13.00;8.10;;;8.00;99.90;;;;;;4241685;27;20071;-63
2021/04/20 00:57:00;;;;;;;10.70;8.07;;;8.00;99.90;;;;;;4241947;27;20023;-65
2021/04/20 00:59:01;;;;;;;12.17;8.83;;;7.90;99.90;;;;;;4225445;28;20023;-63
2021/04/20 01:01:03;;;;;;;12.20;8.93;;;7.90;99.90;;;;;;4225220;28;20076;-64
2021/04/20 01:03:05;;;;;;;11.47;8.53;;;7.90;99.90;;;;;;4225745;28;20029;-63
2021/04/20 01:05:08;;;;;;;12.00;8.47;;;7.90;99.90;;;;;;4225383;27;20061;-63
2021/04/20 01:07:11;;;;;;;11.97;8.20;;;7.90;99.90;;;;;;4225776;28;20020;-63
2021/04/20 01:09:13;;;;;;;11.00;8.13;;;7.90;99.90;;;;;;4224901;28;20027;-64
2021/04/20 01:11:14;;;;;;;13.77;9.33;;;7.90;99.90;;;;;;4225102;28;20097;-63
2021/04/20 01:13:16;;;;;;;11.37;8.20;;;7.90;99.90;;;;;;4224862;28;20081;-64
2021/04/20 01:15:17;;;;;;;11.00;8.23;;;7.80;99.90;;;;;;4226464;28;20032;-63
2021/04/20 01:17:27;;;;;;;12.67;8.63;;;7.80;99.90;;;;;;4224971;28;20090;-63
2021/04/20 01:19:31;;;;;;;13.85;9.18;;;7.80;99.90;;;;;;4226466;28;20028;-62
2021/04/20 01:21:37;;;;;;;12.13;8.50;;;7.90;99.90;;;;;;4224620;28;20053;-62
2021/04/20 01:23:49;;;;;;;10.33;8.03;;;7.80;99.90;;;;;;4225901;28;20032;-63
2021/04/20 01:25:50;;;;;;;11.53;8.63;;;7.90;99.90;;;;;;4237804;27;20027;-65
2021/04/20 01:27:51;;;;;;;12.07;8.57;;;7.80;99.90;;;;;;4242928;27;20116;-64
2021/04/20 01:29:56;;;;;;;11.60;8.43;;;7.80;99.90;;;;;;4241666;27;20069;-64
2021/04/20 01:31:57;;;;;;;11.83;9.07;;;7.80;99.90;;;;;;4243122;27;20023;-65
2021/04/20 01:33:59;;;;;;;9.53;7.83;;;7.70;99.90;;;;;;4241560;27;20436;-63
2021/04/20 01:36:01;;;;;;;12.07;8.40;;;7.70;99.90;;;;;;4241614;27;20039;-64
2021/04/20 01:38:04;;;;;;;13.37;8.60;;;7.70;99.90;;;;;;4241401;27;20031;-64
2021/04/20 01:40:07;;;;;;;12.13;8.77;;;7.70;99.90;;;;;;4242807;27;20068;-64
2021/04/20 01:42:09;;;;;;;15.53;8.87;;;7.70;99.90;;;;;;4241372;27;20428;-66
2021/04/20 01:44:10;;;;;;;12.77;8.60;;;7.80;99.90;;;;;;4242527;27;20031;-64
2021/04/20 01:46:14;;;;;;;11.13;8.40;;;7.80;99.90;;;;;;4233107;27;20088;-63
2021/04/20 01:48:15;;;;;;;10.80;8.57;;;7.80;99.90;;;;;;4224861;28;20027;-64
2021/04/20 01:50:16;;;;;;;12.37;9.03;;;7.80;99.90;;;;;;4225399;28;20112;-64
2021/04/20 01:52:18;;;;;;;12.47;9.10;;;7.80;99.90;;;;;;4223087;28;20031;-64
2021/04/20 01:54:19;;;;;;;13.23;9.20;;;7.80;99.90;;;;;;4226708;27;20077;-64
2021/04/20 01:56:21;;;;;;;12.43;9.17;;;7.70;99.90;;;;;;4223823;28;20805;-63
2021/04/20 01:58:23;;;;;;;11.93;8.40;;;7.80;99.90;;;;;;4225361;28;20039;-64
2021/04/20 02:00:24;;;;;;;14.37;9.47;;;7.80;99.90;;;;;;4227068;27;20032;-63
2021/04/20 02:02:25;;;;;;;12.87;8.87;;;7.80;99.90;;;;;;4242512;27;20019;-63
2021/04/20 02:04:27;;;;;;;13.10;9.07;;;7.80;99.90;;;;;;4241270;27;20060;-63
2021/04/20 02:06:29;;;;;;;14.70;9.17;;;7.80;99.90;;;;;;4242420;27;20042;-64
2021/04/20 02:08:30;;;;;;;14.57;9.40;;;7.80;99.90;;;;;;4241248;27;20080;-64
2021/04/20 02:10:32;;;;;;;15.30;9.70;;;7.80;99.90;;;;;;4242214;27;20035;-64
2021/04/20 02:12:38;;;;;;;13.93;9.60;;;7.80;99.90;;;;;;4241156;27;20038;-63
2021/04/20 02:14:40;;;;;;;14.87;10.27;;;7.70;99.90;;;;;;4241657;27;20626;-64
2021/04/20 02:16:42;;;;;;;16.00;10.60;;;7.80;99.90;;;;;;4241118;27;20050;-64
2021/04/20 02:18:46;;;;;;;15.90;10.60;;;7.80;99.90;;;;;;4241332;27;20072;-64
2021/04/20 02:20:49;;;;;;;14.97;10.30;;;7.80;99.90;;;;;;4222509;28;20591;-64
2021/04/20 02:22:51;;;;;;;13.13;9.67;;;7.70;99.90;;;;;;4223995;28;20088;-63
2021/04/20 02:24:52;;;;;;;13.70;9.97;;;7.80;99.90;;;;;;4224602;28;20096;-64
2021/04/20 02:26:56;;;;;;;13.87;10.17;;;7.80;99.90;;;;;;4224174;28;20088;-65
2021/04/20 02:29:03;;;;;;;14.93;10.50;;;7.80;99.90;;;;;;4224790;28;20027;-64
2021/04/20 02:31:06;;;;;;;14.27;9.87;;;7.80;99.90;;;;;;4223992;28;20421;-65
2021/04/20 02:33:08;;;;;;;15.90;10.13;;;7.80;99.90;;;;;;4238173;27;20035;-64
2021/04/20 02:35:12;;;;;;;13.90;9.47;;;7.80;99.90;;;;;;4240398;27;20477;-63
2021/04/20 02:37:17;;;;;;;14.17;9.87;;;7.80;99.90;;;;;;4241919;27;20035;-64
2021/04/20 02:39:18;;;;;;;13.40;9.30;;;7.80;99.90;;;;;;4240623;27;20055;-63
2021/04/20 02:41:20;;;;;;;15.60;10.17;;;7.80;99.90;;;;;;4241969;27;20043;-64
2021/04/20 02:43:23;;;;;;;13.07;9.73;;;7.80;99.90;;;;;;4225886;27;20027;-63
2021/04/20 02:45:26;;;;;;;15.47;9.60;;;7.80;99.90;;;;;;4223819;28;20039;-61
2021/04/20 02:47:29;;;;;;;15.20;9.73;;;7.80;99.90;;;;;;4223063;28;20035;-64
2021/04/20 02:49:30;;;;;;;15.50;10.70;;;7.80;99.90;;;;;;4224633;28;20044;-64
2021/04/20 02:51:34;;;;;;;14.50;10.53;;;7.80;99.90;;;;;;4223805;28;20081;-64
2021/04/20 02:53:36;;;;;;;14.63;9.23;;;7.80;99.90;;;;;;4224045;28;20112;-64
2021/04/20 02:55:38;;;;;;;11.90;8.93;;;7.80;99.90;;;;;;4224008;27;20035;-63
2021/04/20 02:57:43;;;;;;;13.60;10.03;;;7.80;99.90;;;;;;4223616;28;20031;-64
2021/04/20 02:59:44;;;;;;;14.80;10.13;;;7.80;99.90;;;;;;4223742;28;20404;-65
2021/04/20 03:01:46;;;;;;;15.10;9.73;;;7.80;99.90;;;;;;4223282;28;20027;-63
2021/04/20 03:03:49;;;;;;;17.53;10.87;;;7.80;99.90;;;;;;4224104;28;20054;-64
2021/04/20 03:05:51;;;;;;;15.10;10.33;;;7.80;99.90;;;;;;4224289;27;20051;-64
2021/04/20 03:07:53;;;;;;;14.97;10.00;;;7.80;99.90;;;;;;4223585;28;20084;-64
2021/04/20 03:09:55;;;;;;;15.50;10.70;;;7.80;99.90;;;;;;4222090;28;20110;-64
2021/04/20 03:11:58;;;;;;;16.17;10.40;;;7.80;99.90;;;;;;4224001;28;20488;-64
2021/04/20 03:14:06;;;;;;;16.37;10.93;;;7.80;99.90;;;;;;4223194;28;20043;-64
2021/04/20 03:16:08;;;;;;;17.63;10.70;;;7.80;99.90;;;;;;4224128;28;20047;-64
2021/04/20 03:18:11;;;;;;;16.83;10.80;;;7.70;99.90;;;;;;4222778;28;20035;-63
2021/04/20 03:20:15;;;;;;;15.50;11.00;;;7.70;99.90;;;;;;4224351;28;20081;-64
2021/04/20 03:22:17;;;;;;;18.30;11.37;;;7.70;99.90;;;;;;4229320;27;20803;-63
2021/04/20 03:24:33;;;;;;;16.60;11.30;;;7.70;99.90;;;;;;4241380;27;20023;-64
2021/04/20 03:26:39;;;;;;;16.47;11.43;;;7.70;99.90;;;;;;4239791;27;20024;-63
2021/04/20 03:28:40;;;;;;;18.10;11.63;;;7.70;99.90;;;;;;4241160;27;20023;-64
2021/04/20 03:30:41;;;;;;;18.93;12.17;;;7.70;99.90;;;;;;4230774;27;20051;-64
2021/04/20 03:33:28;;;;;;;20.07;12.77;;;7.60;99.90;;;;;;4240738;27;20482;-68
2021/04/20 03:35:46;;;;;;;19.77;12.67;;;7.70;99.90;;;;;;4233573;27;20051;-66
2021/04/20 03:38:12;;;;;;;17.97;12.17;;;7.70;99.90;;;;;;4241315;27;20356;-65
2021/04/20 03:40:15;;;;;;;18.53;12.80;;;7.60;99.90;;;;;;4239372;27;20444;-64
2021/04/20 03:42:26;;;;;;;21.00;12.60;;;7.60;99.90;;;;;;4240075;27;20120;-64
2021/04/20 03:44:40;;;;;;;20.07;12.47;;;7.70;99.90;;;;;;4240387;27;20555;-66
2021/04/20 03:46:45;;;;;;;19.33;12.73;;;7.70;99.90;;;;;;4235943;27;20535;-63
2021/04/20 03:48:52;;;;;;;20.80;12.53;;;7.60;99.90;;;;;;4222601;28;20027;-63
2021/04/20 03:51:01;;;;;;;17.73;11.63;;;7.60;99.90;;;;;;4222570;28;20081;-64
2021/04/20 03:53:06;;;;;;;20.53;11.73;;;7.60;99.90;;;;;;4222642;28;20092;-63
2021/04/20 03:55:10;;;;;;;21.03;12.53;;;7.60;99.90;;;;;;4223694;28;20040;-63
2021/04/20 03:57:14;;;;;;;19.33;12.13;;;7.60;99.90;;;;;;4222598;28;20035;-63
2021/04/20 03:59:18;;;;;;;21.33;12.93;;;7.70;99.90;;;;;;4228208;28;20019;-65
2021/04/20 04:01:20;;;;;;;16.63;11.73;;;7.60;99.90;;;;;;4238027;28;20031;-63
2021/04/20 04:03:24;;;;;;;19.93;13.13;;;7.70;99.90;;;;;;4223793;28;20027;-64
2021/04/20 04:05:28;;;;;;;19.47;13.27;;;7.70;99.90;;;;;;4220967;28;20039;-68
2021/04/20 04:07:31;;;;;;;19.50;12.77;;;7.70;99.90;;;;;;4224059;28;20035;-68
2021/04/20 04:09:33;;;;;;;19.80;12.43;;;7.70;99.90;;;;;;4222324;28;20072;-69
2021/04/20 04:11:36;;;;;;;18.13;13.00;;;7.70;99.90;;;;;;4224022;28;20093;-71
2021/04/20 04:13:41;;;;;;;21.53;13.63;;;7.70;99.90;;;;;;4228251;28;20067;-65
2021/04/20 04:15:43;;;;;;;18.17;12.90;;;7.70;99.90;;;;;;4239873;28;20031;-65
2021/04/20 04:17:46;;;;;;;19.20;12.63;;;7.70;99.90;;;;;;4240317;28;20072;-66
2021/04/20 04:19:52;;;;;;;20.07;11.97;;;7.80;99.90;;;;;;4239723;28;20035;-65
2021/04/20 04:22:02;;;;;;;20.23;12.87;;;7.80;99.90;;;;;;4241123;27;20012;-64
2021/04/20 04:24:04;;;;;;;18.88;12.50;;;7.80;99.90;;;;;;4242361;27;20076;-67
2021/04/20 04:26:13;;;;;;;21.27;13.83;;;7.90;99.90;;;;;;4243092;27;20035;-65
2021/04/20 04:28:15;;;;;;;19.03;12.83;;;7.90;99.90;;;;;;4239094;27;20077;-65
2021/04/20 04:30:17;;;;;;;19.50;12.83;;;7.90;99.90;;;;;;4226549;28;20016;-64
2021/04/20 04:32:20;;;;;;;22.47;13.97;;;7.90;99.90;;;;;;4225840;28;20027;-65
2021/04/20 04:34:21;;;;;;;21.00;13.77;;;7.90;99.90;;;;;;4227715;27;20084;-64
2021/04/20 04:36:25;;;;;;;19.30;13.00;;;7.90;99.90;;;;;;4225475;28;20048;-65
2021/04/20 04:38:26;;;;;;;22.23;13.67;;;7.90;99.90;;;;;;4231126;27;20109;-64
2021/04/20 04:40:27;;;;;;;20.90;13.97;;;7.90;99.90;;;;;;4234975;27;20027;-65
2021/04/20 04:42:29;;;;;;;26.83;12.80;;;7.90;99.90;;;;;;4243202;27;20039;-65
2021/04/20 04:44:30;;;;;;;21.37;13.03;;;7.90;99.90;;;;;;4242178;27;20526;-65
2021/04/20 04:46:31;;;;;;;21.17;13.10;;;7.90;99.90;;;;;;4242868;27;20043;-64
2021/04/20 04:48:34;;;;;;;18.10;12.40;;;7.90;99.90;;;;;;4241990;27;20035;-65
2021/04/20 04:50:40;;;;;;;19.83;12.73;;;8.00;99.90;;;;;;4242875;27;20085;-65
2021/04/20 04:52:44;;;;;;;22.70;13.43;;;8.00;99.90;;;;;;4238648;27;20088;-63
2021/04/20 04:54:46;;;;;;;16.13;11.70;;;8.00;99.90;;;;;;4226126;28;20463;-67
2021/04/20 04:56:49;;;;;;;19.33;10.93;;;8.10;99.90;;;;;;4225423;28;20489;-64
2021/04/20 04:58:54;;;;;;;20.63;11.60;;;8.10;99.90;;;;;;4225463;28;20036;-75
2021/04/20 05:00:58;;;;;;;18.70;12.70;;;8.10;99.90;;;;;;4225300;28;20039;-66
2021/04/20 05:02:59;;;;;;;20.87;11.67;;;8.20;99.90;;;;;;4238055;27;20151;-67
2021/04/20 05:05:09;;;;;;;16.30;11.37;;;8.20;99.90;;;;;;4242477;27;20064;-65
2021/04/20 05:07:10;;;;;;;19.50;11.55;;;8.30;99.90;;;;;;4242352;27;20023;-65
2021/04/20 05:09:13;;;;;;;18.37;12.20;;;8.30;99.90;;;;;;4242752;27;20101;-65
2021/04/20 05:11:15;;;;;;;14.03;10.47;;;8.40;99.90;;;;;;4241291;27;20043;-65
2021/04/20 05:13:17;;;;;;;17.80;11.57;;;8.40;99.90;;;;;;4242950;27;20107;-64
2021/04/20 05:15:20;;;;;;;18.37;11.40;;;8.40;99.90;;;;;;4242007;27;20045;-66
2021/04/20 05:17:22;;;;;;;18.30;10.93;;;8.50;99.90;;;;;;4243217;27;20034;-64
2021/04/20 05:19:30;;;;;;;16.70;11.50;;;8.50;99.90;;;;;;4241938;27;20031;-65
2021/04/20 05:21:31;;;;;;;16.97;10.97;;;8.60;99.90;;;;;;4241539;27;20031;-65
2021/04/20 05:23:32;;;;;;;16.73;11.13;;;8.60;99.90;;;;;;4241553;27;20039;-65
2021/04/20 05:25:34;;;;;;;18.37;10.90;;;8.70;99.90;;;;;;4242921;27;20104;-65
2021/04/20 05:27:35;;;;;;;15.97;10.93;;;8.70;99.90;;;;;;4241338;27;20043;-66
2021/04/20 05:29:40;;;;;;;16.70;11.27;;;8.80;99.90;;;;;;4242777;27;20019;-65
2021/04/20 05:31:41;;;;;;;15.53;11.07;;;8.70;99.90;;;;;;4240812;27;20443;-63
2021/04/20 05:33:42;;;;;;;18.13;10.93;;;8.80;99.90;;;;;;4241023;27;20115;-66
2021/04/20 05:35:43;;;;;;;17.27;9.83;;;8.70;99.90;;;;;;4241405;27;20420;-65
2021/04/20 05:37:46;;;;;;;16.50;10.43;;;8.80;99.90;;;;;;4241940;27;20043;-66
2021/04/20 05:39:47;;;;;;;15.50;10.73;;;8.90;99.90;;;;;;4241439;27;20035;-65
2021/04/20 05:41:49;;;;;;;18.90;11.33;;;8.90;99.90;;;;;;4241168;27;20389;-66
2021/04/20 05:43:51;;;;;;;16.73;9.70;;;8.90;99.90;;;;;;4242062;27;20035;-64
2021/04/20 05:45:52;;;;;;;28.07;16.50;;;8.90;99.90;;;;;;4241180;27;20439;-64
2021/04/20 05:47:54;;;;;;;19.97;12.17;;;9.00;99.90;;;;;;4242207;27;20526;-64
2021/04/20 05:49:58;;;;;;;17.03;11.27;;;9.00;99.90;;;;;;4240797;27;20502;-66
2021/04/20 05:51:59;;;;;;;15.87;10.93;;;9.10;99.90;;;;;;4242042;27;20027;-63
2021/04/20 05:54:00;;;;;;;17.30;11.10;;;9.10;99.90;;;;;;4241070;27;20035;-65
2021/04/20 05:56:02;;;;;;;15.93;10.57;;;9.20;99.90;;;;;;4242556;27;20035;-65
2021/04/20 05:58:04;;;;;;;15.40;10.20;;;9.20;99.90;;;;;;4241163;27;20031;-66
2021/04/20 06:00:07;;;;;;;17.43;10.97;;;9.20;99.90;;;;;;4242310;27;20428;-65
2021/04/20 06:02:11;;;;;;;15.53;10.77;;;9.30;99.90;;;;;;4240723;27;20104;-65
2021/04/20 06:04:14;;;;;;;18.73;11.30;;;9.30;99.90;;;;;;4242062;27;20039;-67
2021/04/20 06:06:17;;;;;;;18.07;10.67;;;9.40;99.90;;;;;;4240771;27;20080;-65
2021/04/20 06:08:18;;;;;;;20.87;11.40;;;9.50;99.90;;;;;;4241999;27;20095;-66
2021/04/20 06:10:20;;;;;;;18.33;12.27;;;9.60;99.90;;;;;;4241024;27;20092;-64
2021/04/20 06:12:22;;;;;;;18.57;11.67;;;9.70;99.90;;;;;;4241112;27;20047;-63
2021/04/20 06:14:23;;;;;;;17.37;11.20;;;9.80;99.90;;;;;;4241645;27;20060;-64
2021/04/20 06:16:24;;;;;;;18.53;10.97;;;9.80;99.90;;;;;;4239616;27;20039;-65
2021/04/20 06:18:26;;;;;;;17.23;9.87;;;9.90;99.90;;;;;;4241756;27;20026;-65
2021/04/20 06:20:28;;;;;;;15.43;10.17;;;10.00;99.90;;;;;;4240634;27;20367;-65
2021/04/20 06:22:30;;;;;;;17.77;10.67;;;10.00;99.90;;;;;;4241611;27;20027;-63
2021/04/20 06:24:32;;;;;;;13.53;9.70;;;9.90;99.90;;;;;;4240714;27;20031;-65
2021/04/20 06:26:38;;;;;;;15.47;9.97;;;9.90;99.90;;;;;;4241239;27;20072;-64
2021/04/20 06:28:41;;;;;;;13.77;9.90;;;9.90;99.90;;;;;;4240503;27;20120;-65
2021/04/20 06:30:42;;;;;;;16.23;10.20;;;9.90;99.90;;;;;;4240404;27;20614;-66
2021/04/20 06:32:45;;;;;;;12.97;9.47;;;9.80;99.90;;;;;;4240597;27;20084;-63
2021/04/20 06:34:46;;;;;;;18.73;11.20;;;9.80;99.90;;;;;;4241746;27;20091;-64
2021/04/20 06:36:48;;;;;;;17.93;9.83;;;9.80;99.90;;;;;;4240539;27;20037;-65
2021/04/20 06:38:49;;;;;;;13.20;8.90;;;9.80;99.90;;;;;;4241659;27;20088;-63
2021/04/20 06:40:53;;;;;;;14.60;9.10;;;9.70;99.90;;;;;;4240185;27;20023;-64
2021/04/20 06:42:59;;;;;;;15.23;9.23;;;9.70;99.90;;;;;;4241013;27;20027;-65
2021/04/20 06:45:06;;;;;;;13.97;10.07;;;9.70;99.90;;;;;;4239573;27;20027;-63
2021/04/20 06:47:22;;;;;;;18.73;10.30;;;9.70;99.90;;;;;;4240775;27;20716;-64
2021/04/20 06:49:40;;;;;;;19.27;12.00;;;9.70;99.90;;;;;;4240062;27;20494;-64
2021/04/20 06:51:56;;;;;;;21.17;13.43;;;9.70;99.90;;;;;;4241346;27;20031;-63
2021/04/20 06:54:04;;;;;;;15.63;9.93;;;9.70;99.90;;;;;;4238678;27;20035;-64
2021/04/20 06:56:28;;;;;;;17.87;12.10;;;9.70;99.90;;;;;;4240434;27;20023;-65
2021/04/20 06:58:55;;;;;;;18.93;13.37;;;9.70;99.90;;;;;;4240200;27;20068;-66
2021/04/20 07:01:00;;;;;;;27.30;14.67;;;9.60;99.90;;;;;;4236372;27;20056;-65
2021/04/20 07:03:25;;;;;;;30.33;14.80;;;9.70;99.90;;;;;;4239932;27;20084;-65
2021/04/20 07:05:32;;;;;;;22.07;14.27;;;9.80;99.90;;;;;;4221428;27;20088;-65
2021/04/20 07:08:11;;;;;;;18.50;12.07;;;9.80;99.90;;;;;;4239856;27;20475;-66
2021/04/20 07:10:17;;;;;;;26.63;14.33;;;9.90;99.90;;;;;;4240870;27;20027;-66
2021/04/20 07:12:19;;;;;;;19.77;11.63;;;10.00;99.90;;;;;;4239752;27;20031;-65
2021/04/20 07:14:48;;;;;;;15.63;10.53;;;10.00;99.90;;;;;;4241025;27;20080;-64
2021/04/20 07:17:04;;;;;;;20.53;12.30;;;10.10;99.90;;;;;;4235452;27;20027;-66
2021/04/20 07:19:18;;;;;;;15.20;9.87;;;10.20;99.90;;;;;;4240312;27;20131;-64
2021/04/20 07:21:21;;;;;;;15.77;9.80;;;10.20;99.90;;;;;;4239520;27;20035;-66
2021/04/20 07:23:41;;;;;;;17.97;10.07;;;10.30;99.90;;;;;;4240885;27;20035;-64
2021/04/20 07:26:04;;;;;;;14.10;9.53;;;10.40;99.90;;;;;;4240054;27;20080;-64
2021/04/20 07:28:37;;;;;;;14.27;9.70;;;10.50;99.90;;;;;;4239979;27;20324;-64
2021/04/20 07:30:43;;;;;;;18.40;9.93;;;10.50;99.90;;;;;;4240250;27;20088;-64
2021/04/20 07:33:05;;;;;;;13.97;10.27;;;10.50;99.90;;;;;;4239324;27;20503;-63
2021/04/20 07:35:15;;;;;;;20.23;10.77;;;10.60;99.90;;;;;;4240518;27;20039;-64
2021/04/20 07:37:32;;;;;;;13.98;9.60;;;10.60;99.90;;;;;;4238003;27;20035;-64
2021/04/20 07:39:59;;;;;;;13.37;9.47;;;10.60;99.90;;;;;;4240600;27;20031;-65
2021/04/20 07:42:16;;;;;;;15.33;9.97;;;10.70;99.90;;;;;;4239736;27;20031;-63
2021/04/20 07:44:33;;;;;;;16.97;10.23;;;10.60;99.90;;;;;;4240185;27;20088;-63
2021/04/20 07:46:46;;;;;;;16.33;11.00;;;10.60;99.90;;;;;;4238251;28;20035;-64
2021/04/20 07:48:57;;;;;;;16.70;12.00;;;10.50;99.90;;;;;;4240622;27;20031;-65
2021/04/20 07:51:07;;;;;;;18.83;12.27;;;10.50;99.90;;;;;;4239557;28;20039;-65
2021/04/20 07:53:33;;;;;;;20.50;13.43;;;10.60;99.90;;;;;;4240599;28;20760;-63
2021/04/20 07:56:01;;;;;;;18.73;12.97;;;10.60;99.90;;;;;;4239606;27;20043;-64
2021/04/20 07:58:07;;;;;;;24.77;14.17;;;10.60;99.90;;;;;;4225220;27;20039;-65
2021/04/20 08:00:17;;;;;;;21.70;13.50;;;10.60;99.90;;;;;;4243042;27;20095;-64
2021/04/20 08:02:34;;;;;;;19.88;11.15;;;10.70;99.90;;;;;;4243511;27;20042;-65
2021/04/20 08:04:58;;;;;;;17.60;11.53;;;10.50;99.90;;;;;;4242908;27;20425;-64
2021/04/20 08:07:08;;;;;;;18.40;12.37;;;10.50;99.90;;;;;;4243258;27;20027;-65
2021/04/20 08:09:13;;;;;;;16.73;11.50;;;10.60;99.90;;;;;;4243525;27;20072;-65
2021/04/20 08:11:31;;;;;;;20.83;11.33;;;10.60;99.90;;;;;;4242750;27;20043;-63
2021/04/20 08:13:52;;;;;;;23.97;12.30;;;10.60;99.90;;;;;;4243422;27;20562;-63
2021/04/20 08:15:56;;;;;;;16.37;10.80;;;10.70;99.90;;;;;;4242726;27;20428;-65
2021/04/20 08:18:07;;;;;;;21.27;12.00;;;10.80;99.90;;;;;;4243115;27;20564;-64
2021/04/20 08:20:12;;;;;;;16.63;10.38;;;10.80;99.90;;;;;;4242817;27;20363;-63
2021/04/20 08:22:16;;;;;;;18.53;10.83;;;10.90;99.90;;;;;;4243251;27;20495;-63
2021/04/20 08:24:31;;;;;;;14.13;10.33;;;10.90;99.90;;;;;;4243165;27;20123;-64
2021/04/20 08:26:42;;;;;;;14.40;10.50;;;11.00;99.90;;;;;;4242574;27;20031;-66
2021/04/20 08:28:57;;;;;;;15.57;10.70;;;11.10;99.90;;;;;;4242726;27;20035;-65
2021/04/20 08:31:13;;;;;;;14.77;9.60;;;11.40;99.90;;;;;;4243155;27;20095;-65
2021/04/20 08:33:17;;;;;;;13.73;8.93;;;11.50;99.90;;;;;;4242220;27;20482;-64
2021/04/20 08:35:38;;;;;;;14.77;9.17;;;11.70;99.90;;;;;;4242486;27;20748;-65
2021/04/20 08:37:42;;;;;;;;;;;11.80;99.90;;;;;;4242722;27;20027;-64
2021/04/20 08:40:20;;;;;;;13.43;8.40;;;11.80;99.90;;;;;;4241780;27;19907;-65
2021/04/20 08:42:35;;;;;;;15.23;8.00;;;11.80;99.90;;;;;;4228841;27;20047;-64
2021/04/20 08:45:06;;;;;;;10.40;7.73;;;11.70;99.90;;;;;;4243315;27;20382;-65
2021/04/20 08:47:19;;;;;;;9.97;7.10;;;11.70;99.90;;;;;;4242147;27;20035;-65
2021/04/20 08:49:44;;;;;;;14.40;8.40;;;11.60;99.90;;;;;;4243110;27;20108;-64
2021/04/20 08:52:05;;;;;;;10.33;6.40;;;11.50;99.90;;;;;;4241270;27;20043;-63
2021/04/20 08:54:16;;;;;;;7.80;5.35;;;11.50;99.90;;;;;;4243207;27;20035;-64
2021/04/20 08:56:20;;;;;;;8.07;4.40;;;11.50;99.90;;;;;;4241403;27;20031;-65
2021/04/20 08:58:59;;;;;;;7.33;4.70;;;11.40;99.90;;;;;;4243046;27;20103;-62
2021/04/20 09:01:31;;;;;;;11.10;4.97;;;11.40;99.90;;;;;;4242347;27;20034;-65
2021/04/20 09:03:47;;;;;;;13.50;6.20;;;11.30;99.90;;;;;;4241831;27;20019;-63
2021/04/20 09:05:51;;;;;;;11.93;7.60;;;11.30;99.90;;;;;;4242925;27;20077;-62
2021/04/20 09:07:55;;;;;;;11.47;6.33;;;11.20;99.90;;;;;;4239294;27;20544;-63
2021/04/20 09:10:18;;;;;;;9.87;6.73;;;11.20;99.90;;;;;;4242217;27;20035;-64
2021/04/20 09:12:22;;;;;;;9.07;6.37;;;11.20;99.90;;;;;;4241297;27;20039;-64
2021/04/20 09:14:34;;;;;;;7.70;5.73;;;11.10;99.90;;;;;;4242714;27;20047;-66
2021/04/20 09:17:12;;;;;;;10.87;5.87;;;11.10;99.90;;;;;;4242489;27;20056;-65
2021/04/20 09:19:39;;;;;;;10.47;6.97;;;11.20;99.90;;;;;;4240458;27;20055;-63
2021/04/20 09:22:04;;;;;;;9.37;6.37;;;11.20;99.90;;;;;;4241732;27;20099;-65
2021/04/20 09:24:29;;;;;;;9.63;6.13;;;11.30;99.90;;;;;;4242877;27;20150;-64
2021/04/20 09:26:50;;;;;;;12.80;6.17;;;11.20;99.90;;;;;;4241095;27;20038;-63
2021/04/20 09:29:00;;;;;;;7.63;5.63;;;11.20;99.90;;;;;;4241716;27;20034;-63
2021/04/20 09:31:08;;;;;;;8.13;5.25;;;11.30;99.90;;;;;;4241598;27;20055;-64
2021/04/20 09:33:15;;;;;;;8.27;4.20;;;11.30;99.90;;;;;;4242422;27;20471;-64
2021/04/20 09:35:16;;;;;;;6.00;4.23;;;11.30;99.90;;;;;;4241479;27;20047;-64
2021/04/20 09:37:20;;;;;;;6.60;4.80;;;11.20;99.90;;;;;;4242618;27;20012;-63
2021/04/20 09:39:22;;;;;;;7.27;4.60;;;11.20;99.90;;;;;;4238938;27;20031;-63
2021/04/20 09:41:29;;;;;;;8.87;4.63;;;11.30;99.90;;;;;;4242220;27;20068;-63
2021/04/20 09:43:37;;;;;;;5.43;4.83;;;11.20;99.90;;;;;;4240668;27;20047;-63
2021/04/20 09:45:46;;;;;;;7.47;4.20;;;11.20;99.90;;;;;;4241721;27;20039;-64
2021/04/20 09:48:08;;;;;;;8.03;5.63;;;11.10;99.90;;;;;;4241252;27;20100;-63
2021/04/20 09:50:34;;;;;;;6.93;4.90;;;11.10;99.90;;;;;;4242000;27;20051;-65
2021/04/20 09:53:02;;;;;;;7.77;4.63;;;11.10;99.90;;;;;;4240631;27;20884;-63
2021/04/20 09:55:07;;;;;;;8.27;4.40;;;11.10;99.90;;;;;;4241215;27;20118;-63
2021/04/20 09:57:12;;;;;;;7.90;3.70;;;11.20;99.90;;;;;;4241157;27;20035;-65
2021/04/20 09:59:26;;;;;;;3.87;3.23;;;11.20;99.90;;;;;;4241540;27;20026;-65
2021/04/20 10:01:30;;;;;;;5.03;4.10;;;11.20;99.90;;;;;;4241263;27;20471;-63
2021/04/20 10:03:51;;;;;;;5.37;3.70;;;11.10;99.90;;;;;;4241667;27;20031;-65
2021/04/20 10:06:30;;;;;;;7.17;4.10;;;11.10;99.90;;;;;;4241350;27;20496;-64
2021/04/20 10:09:08;;;;;;;7.00;4.47;;;11.20;99.90;;;;;;4240162;27;20015;-66
2021/04/20 10:11:18;;;;;;;8.40;4.37;;;11.40;99.90;;;;;;4241437;27;20039;-63
2021/04/20 10:13:31;;;;;;;6.47;3.37;;;11.50;99.90;;;;;;4240504;27;20076;-62
2021/04/20 10:15:37;;;;;;;6.40;4.30;;;11.70;99.90;;;;;;4241239;27;20083;-64
2021/04/20 10:18:36;;;;;;;4.87;4.07;;;11.90;99.90;;;;;;4240916;27;20076;-61
2021/04/20 10:20:59;;;;;;;4.70;3.83;;;12.10;99.90;;;;;;4204502;28;20081;-64
2021/04/20 10:23:15;;;;;;;4.80;3.77;;;12.20;99.90;;;;;;4204701;28;20032;-65
2021/04/20 10:25:44;;;;;;;5.53;4.77;;;12.40;99.90;;;;;;4212633;27;20042;-64
2021/04/20 10:27:50;;;;;;;6.70;4.30;;;12.50;99.90;;;;;;4241231;27;20479;-62
2021/04/20 10:30:06;;;;;;;5.20;4.10;;;12.60;99.90;;;;;;4240513;27;20027;-63
2021/04/20 10:32:18;;;;;;;5.37;4.10;;;12.60;99.90;;;;;;4241609;27;20073;-64
2021/04/20 10:34:19;;;;;;;5.60;4.77;;;12.60;99.90;;;;;;4240223;27;20401;-64
2021/04/20 10:36:23;;;;;;;6.83;4.83;;;12.70;99.90;;;;;;4240943;27;20049;-64
2021/04/20 10:38:32;;;;;;;5.77;4.23;;;12.80;99.90;;;;;;4241028;27;20425;-65
2021/04/20 10:40:35;;;;;;;7.17;4.87;;;12.90;99.90;;;;;;4240234;27;20027;-64
2021/04/20 10:42:38;;;;;;;5.77;5.20;;;12.90;99.90;;;;;;4240607;27;20088;-65
2021/04/20 10:44:40;;;;;;;7.50;5.73;;;12.80;99.90;;;;;;4239247;27;20051;-66
2021/04/20 10:46:46;;;;;;;7.67;6.00;;;12.50;99.90;;;;;;4241555;27;20055;-66
2021/04/20 10:48:48;;;;;;;8.33;6.23;;;12.40;99.90;;;;;;4239894;27;20605;-66
2021/04/20 10:50:52;;;;;;;7.57;6.00;;;12.30;99.90;;;;;;4240470;27;20498;-63
2021/04/20 10:53:02;;;;;;;8.23;5.87;;;12.40;99.90;;;;;;4240170;27;20583;-63
2021/04/20 10:55:14;;;;;;;11.45;6.18;;;12.50;99.90;;;;;;4240922;27;20191;-64
2021/04/20 10:57:16;;;;;;;9.93;6.30;;;12.60;99.90;;;;;;4239633;27;20027;-64
2021/04/20 10:59:34;;;;;;;8.20;5.30;;;12.60;99.90;;;;;;4240640;27;20107;-65